Time;durP1;ratioP1;P1;durP2;ratioP2;P2;SDS_P1;SDS_P2;PMS_P1;PMS_P2;Temp;Humidity;BMP_temperature;BMP_pressure;BME280_temperature;BME280_humidity;BME280_pressure;Samples;Min_cycle;Max_cycle;Signal;HPM_P1;HPM_P2
2022/07/02 00:01:51;;;;;;;6.75;2.33;;;13.20;99.90;;;;;;4927503;29;20575;-78
2022/07/02 00:04:32;;;;;;;6.05;2.20;;;13.30;99.90;;;;;;4926934;29;20052;-78
2022/07/02 00:06:58;;;;;;;5.68;2.20;;;13.20;99.90;;;;;;4928555;29;20059;-79
2022/07/02 00:09:28;;;;;;;7.13;2.20;;;13.10;99.90;;;;;;4923601;29;20129;-78
2022/07/02 00:11:59;;;;;;;6.40;2.38;;;13.10;99.90;;;;;;4928750;29;20062;-78
2022/07/02 00:14:25;;;;;;;10.02;2.72;;;13.10;99.90;;;;;;4944155;28;20129;-78
2022/07/02 00:16:53;;;;;;;6.70;2.50;;;13.00;99.90;;;;;;4939378;29;20043;-78
2022/07/02 00:19:20;;;;;;;11.23;2.75;;;13.00;99.90;;;;;;4918098;29;20536;-78
2022/07/02 00:21:46;;;;;;;8.05;2.50;;;13.00;99.90;;;;;;4931925;29;20182;-78
2022/07/02 00:24:12;;;;;;;7.95;2.40;;;13.00;99.90;;;;;;4945840;28;20126;-78
2022/07/02 00:26:40;;;;;;;7.18;2.30;;;13.00;99.90;;;;;;4923428;29;20500;-78
2022/07/02 00:29:29;;;;;;;6.95;2.45;;;12.90;99.90;;;;;;4910123;29;20055;-79
2022/07/02 00:31:56;;;;;;;6.95;2.50;;;12.90;99.90;;;;;;4928864;28;20067;-78
2022/07/02 00:34:24;;;;;;;7.65;2.70;;;12.90;99.90;;;;;;4923903;28;20031;-78
2022/07/02 00:36:55;;;;;;;7.07;2.55;;;12.90;99.90;;;;;;4925058;29;20063;-78
2022/07/02 00:39:21;;;;;;;9.20;2.60;;;12.90;99.90;;;;;;4940237;28;20085;-78
2022/07/02 00:41:48;;;;;;;9.82;3.08;;;12.90;99.90;;;;;;4941463;28;20433;-79
2022/07/02 00:44:14;;;;;;;7.07;2.58;;;12.90;99.90;;;;;;4936429;28;20479;-79
2022/07/02 00:46:42;;;;;;;9.68;2.72;;;12.90;99.90;;;;;;4940591;28;20039;-78
2022/07/02 00:49:09;;;;;;;6.43;2.67;;;12.90;99.90;;;;;;4939490;29;20089;-78
2022/07/02 00:51:34;;;;;;;8.07;2.90;;;12.90;99.90;;;;;;4922995;29;20492;-78
2022/07/02 00:54:01;;;;;;;9.38;3.20;;;12.90;99.90;;;;;;4922044;29;20051;-78
2022/07/02 00:56:27;;;;;;;9.38;3.25;;;12.90;99.90;;;;;;4926243;29;20050;-78
2022/07/02 00:58:53;;;;;;;4.70;2.20;;;12.80;99.90;;;;;;4941748;28;20047;-78
2022/07/02 01:01:18;;;;;;;8.35;2.95;;;12.80;99.90;;;;;;4941778;28;20469;-79
2022/07/02 01:03:47;;;;;;;6.35;2.60;;;12.80;99.90;;;;;;4912155;29;20047;-79
2022/07/02 01:06:15;;;;;;;7.32;2.78;;;12.80;99.90;;;;;;4938549;29;20039;-78
2022/07/02 01:11:27;;;;;;;8.40;2.80;;;12.80;99.90;;;;;;4944230;28;20059;-78
2022/07/02 01:13:55;;;;;;;8.77;2.90;;;12.80;99.90;;;;;;4931015;29;20059;-79
2022/07/02 01:16:21;;;;;;;7.68;3.03;;;12.70;99.90;;;;;;4927428;29;20043;-79
2022/07/02 01:18:47;;;;;;;10.00;3.33;;;12.70;99.90;;;;;;4941984;28;20097;-78
2022/07/02 01:21:12;;;;;;;9.05;3.00;;;12.70;99.90;;;;;;4929384;29;20043;-78
2022/07/02 01:23:38;;;;;;;10.02;2.97;;;12.70;99.90;;;;;;4928496;28;20146;-78
2022/07/02 01:26:05;;;;;;;8.15;3.10;;;12.80;99.90;;;;;;4926098;29;20069;-79
2022/07/02 01:28:31;;;;;;;8.40;3.20;;;12.70;99.90;;;;;;4925058;29;20039;-78
2022/07/02 01:30:56;;;;;;;8.70;3.47;;;12.70;99.90;;;;;;4928509;29;20046;-79
2022/07/02 01:33:22;;;;;;;9.38;3.05;;;12.70;99.90;;;;;;4929746;29;20036;-80
2022/07/02 01:35:48;;;;;;;9.63;3.10;;;12.60;99.90;;;;;;4947277;28;20135;-79
2022/07/02 01:38:13;;;;;;;8.85;3.05;;;12.60;99.90;;;;;;4939681;29;20504;-79
2022/07/02 01:40:39;;;;;;;10.93;3.65;;;12.60;99.90;;;;;;4942494;28;20428;-79
2022/07/02 01:43:05;;;;;;;8.63;3.45;;;12.60;99.90;;;;;;4928125;29;20051;-79
2022/07/02 01:45:31;;;;;;;11.02;3.78;;;12.60;99.90;;;;;;4945454;28;20031;-80
2022/07/02 01:47:56;;;;;;;9.05;3.45;;;12.60;99.90;;;;;;4925647;29;20077;-79
2022/07/02 01:50:22;;;;;;;10.82;3.17;;;12.60;99.90;;;;;;4924478;29;20145;-79
2022/07/02 01:52:48;;;;;;;9.60;3.38;;;12.40;99.90;;;;;;4946603;28;20043;-79
2022/07/02 01:55:14;;;;;;;10.95;3.60;;;12.50;99.90;;;;;;4942541;28;20564;-79
2022/07/02 01:57:40;;;;;;;10.35;3.55;;;12.50;99.90;;;;;;4926162;28;20122;-79
2022/07/02 02:00:09;;;;;;;11.90;3.30;;;12.50;99.90;;;;;;4931556;29;20035;-79
2022/07/02 02:02:35;;;;;;;8.38;3.58;;;12.50;99.90;;;;;;4927067;29;20070;-78
2022/07/02 02:05:00;;;;;;;8.48;3.95;;;12.50;99.90;;;;;;4932268;29;20077;-79
2022/07/02 02:07:27;;;;;;;9.00;3.38;;;12.50;99.90;;;;;;4949652;28;20165;-79
2022/07/02 02:09:53;;;;;;;8.52;3.90;;;12.40;99.90;;;;;;4934327;29;20394;-78
2022/07/02 02:12:19;;;;;;;9.02;3.50;;;12.50;99.90;;;;;;4929819;29;20050;-79
2022/07/02 02:14:45;;;;;;;12.73;3.47;;;12.40;99.90;;;;;;4923674;29;20381;-78
2022/07/02 02:17:10;;;;;;;13.13;3.97;;;12.40;99.90;;;;;;4943541;29;20116;-78
2022/07/02 02:19:36;;;;;;;12.38;4.68;;;12.40;99.90;;;;;;4949978;28;20082;-79
2022/07/02 02:22:02;;;;;;;8.85;3.53;;;12.50;99.90;;;;;;4941461;28;20131;-79
2022/07/02 02:24:28;;;;;;;9.65;3.60;;;12.40;99.90;;;;;;4933049;29;20122;-79
2022/07/02 02:26:54;;;;;;;10.07;3.58;;;12.40;99.90;;;;;;4929524;29;20536;-78
2022/07/02 02:29:19;;;;;;;8.85;3.33;;;12.40;99.90;;;;;;4943159;29;20058;-79
2022/07/02 02:31:45;;;;;;;10.25;3.65;;;12.30;99.90;;;;;;4941741;29;20611;-79
2022/07/02 02:34:11;;;;;;;10.48;3.55;;;12.30;99.90;;;;;;4933063;29;20079;-79
2022/07/02 02:36:36;;;;;;;7.28;3.30;;;12.40;99.90;;;;;;4924580;29;20404;-78
2022/07/02 02:39:03;;;;;;;10.70;3.65;;;12.30;99.90;;;;;;4931479;29;20031;-78
2022/07/02 02:41:28;;;;;;;11.50;3.53;;;12.30;99.90;;;;;;4933261;29;20381;-78
2022/07/02 02:43:54;;;;;;;8.65;3.35;;;12.30;99.90;;;;;;4924689;29;20083;-77
2022/07/02 02:46:19;;;;;;;9.27;3.60;;;12.30;99.90;;;;;;4940774;29;20055;-78
2022/07/02 02:48:45;;;;;;;9.38;3.53;;;12.30;99.90;;;;;;4918051;29;20039;-77
2022/07/02 02:51:14;;;;;;;10.48;3.92;;;12.30;99.90;;;;;;4941841;28;20513;-78
2022/07/02 02:53:42;;;;;;;8.63;3.13;;;12.40;99.90;;;;;;4941414;28;20051;-78
2022/07/02 02:56:08;;;;;;;8.88;3.50;;;12.30;99.90;;;;;;4929199;29;20098;-77
2022/07/02 02:58:34;;;;;;;10.95;3.17;;;12.30;99.90;;;;;;4940426;29;20034;-78
2022/07/02 03:01:00;;;;;;;9.15;3.38;;;12.20;99.90;;;;;;4945394;28;20051;-78
2022/07/02 03:03:26;;;;;;;9.40;3.35;;;12.10;99.90;;;;;;4938100;28;20115;-78
2022/07/02 03:05:53;;;;;;;11.35;3.20;;;12.30;99.90;;;;;;4928281;29;20066;-78
2022/07/02 03:08:19;;;;;;;13.65;3.35;;;12.20;99.90;;;;;;4928131;29;20043;-78
2022/07/02 03:10:45;;;;;;;10.50;3.53;;;12.20;99.90;;;;;;4910911;29;20044;-78
2022/07/02 03:13:11;;;;;;;10.85;3.42;;;12.20;99.90;;;;;;4924809;29;20380;-78
2022/07/02 03:15:37;;;;;;;10.25;3.60;;;12.20;99.90;;;;;;4936862;28;20492;-78
2022/07/02 03:18:03;;;;;;;11.45;4.15;;;12.20;99.90;;;;;;4935982;29;20066;-78
2022/07/02 03:20:31;;;;;;;7.60;3.33;;;12.20;99.90;;;;;;4930649;29;20548;-78
2022/07/02 03:22:57;;;;;;;7.68;3.20;;;12.20;99.90;;;;;;4940359;28;20067;-78
2022/07/02 03:25:22;;;;;;;8.05;3.40;;;12.20;99.90;;;;;;4950720;28;20097;-77
2022/07/02 03:27:48;;;;;;;9.32;3.78;;;12.20;99.90;;;;;;4935519;29;20047;-78
2022/07/02 03:30:14;;;;;;;7.65;3.60;;;12.20;99.90;;;;;;4934800;29;20145;-78
2022/07/02 03:32:39;;;;;;;12.05;4.00;;;12.40;99.90;;;;;;4917815;29;20047;-78
2022/07/02 03:35:06;;;;;;;8.02;3.50;;;12.30;99.90;;;;;;4929570;29;20496;-77
2022/07/02 03:37:32;;;;;;;8.15;3.88;;;12.30;99.90;;;;;;4921376;28;20091;-79
2022/07/02 03:39:58;;;;;;;15.35;4.00;;;12.30;99.90;;;;;;4939594;29;21352;-79
2022/07/02 03:42:24;;;;;;;10.48;4.05;;;12.30;99.90;;;;;;4941233;29;20039;-78
2022/07/02 03:44:50;;;;;;;11.77;3.55;;;12.30;99.90;;;;;;4939816;29;20043;-79
2022/07/02 03:47:16;;;;;;;12.95;3.53;;;12.30;99.90;;;;;;4945067;29;20400;-78
2022/07/02 03:49:41;;;;;;;10.32;4.20;;;12.20;99.90;;;;;;4946199;29;20058;-78
2022/07/02 03:52:07;;;;;;;10.95;3.75;;;12.40;99.90;;;;;;4925688;29;20055;-78
2022/07/02 03:54:33;;;;;;;11.98;3.55;;;12.50;99.90;;;;;;4947785;29;20040;-78
2022/07/02 03:56:58;;;;;;;18.70;4.30;;;12.40;99.90;;;;;;4945415;28;20050;-78
2022/07/02 03:59:24;;;;;;;14.60;3.58;;;12.40;99.90;;;;;;4921327;29;20040;-78
2022/07/02 04:01:52;;;;;;;11.50;3.90;;;12.50;99.90;;;;;;4945599;29;20047;-79
2022/07/02 04:04:19;;;;;;;8.80;3.63;;;12.60;99.90;;;;;;4917391;29;20050;-78
2022/07/02 04:06:45;;;;;;;10.73;3.70;;;12.70;99.90;;;;;;4943926;28;20040;-78
2022/07/02 04:09:11;;;;;;;10.90;4.00;;;12.60;99.90;;;;;;4939596;29;20043;-79
2022/07/02 04:11:36;;;;;;;9.02;4.10;;;12.60;99.90;;;;;;4944460;29;20058;-79
2022/07/02 04:14:02;;;;;;;13.90;4.10;;;12.70;99.90;;;;;;4926203;29;20043;-79
2022/07/02 04:16:28;;;;;;;12.00;4.20;;;12.70;99.90;;;;;;4927004;29;20039;-78
2022/07/02 04:18:54;;;;;;;11.25;3.70;;;12.80;99.90;;;;;;4925141;29;21116;-78
2022/07/02 04:21:19;;;;;;;14.75;3.80;;;12.90;99.90;;;;;;4941820;28;20036;-78
2022/07/02 04:23:46;;;;;;;12.55;4.13;;;12.90;99.90;;;;;;4921312;29;20043;-78
2022/07/02 04:26:11;;;;;;;15.15;4.18;;;13.00;99.90;;;;;;4935383;29;20058;-78
2022/07/02 04:28:37;;;;;;;9.57;4.28;;;13.00;99.90;;;;;;4925056;29;20051;-78
2022/07/02 04:31:03;;;;;;;8.40;3.80;;;13.10;99.90;;;;;;4928702;29;20052;-78
2022/07/02 04:33:28;;;;;;;7.05;3.47;;;13.20;99.90;;;;;;4942061;29;20039;-78
2022/07/02 04:35:54;;;;;;;15.25;4.22;;;13.30;99.90;;;;;;4940322;28;20052;-78
2022/07/02 04:38:20;;;;;;;14.63;3.63;;;13.70;99.90;;;;;;4932021;29;20130;-78
2022/07/02 04:40:45;;;;;;;11.57;3.63;;;15.30;99.90;;;;;;4929642;29;20078;-78
2022/07/02 04:43:11;;;;;;;14.18;3.90;;;16.80;99.90;;;;;;4943232;28;20501;-78
2022/07/02 04:45:37;;;;;;;11.27;3.30;;;18.20;99.90;;;;;;4940283;29;20137;-78
2022/07/02 04:48:03;;;;;;;11.93;3.28;;;19.40;99.90;;;;;;4931697;29;20121;-78
2022/07/02 04:50:28;;;;;;;10.23;2.90;;;20.50;99.90;;;;;;4944367;28;20071;-78
2022/07/02 04:52:54;;;;;;;10.55;3.33;;;21.50;99.90;;;;;;4931321;29;20075;-79
2022/07/02 04:55:20;;;;;;;8.88;2.90;;;22.30;99.90;;;;;;4941211;28;20328;-78
2022/07/02 04:57:45;;;;;;;8.65;3.30;;;23.00;99.90;;;;;;4925440;29;20118;-77
2022/07/02 05:00:12;;;;;;;9.13;3.00;;;23.70;99.90;;;;;;4916267;29;20043;-77
2022/07/02 05:02:37;;;;;;;9.65;3.33;;;24.10;99.90;;;;;;4925306;29;20053;-78
2022/07/02 05:05:04;;;;;;;9.73;3.17;;;24.50;99.90;;;;;;4943668;28;20513;-78
2022/07/02 05:07:30;;;;;;;10.88;3.33;;;24.80;99.90;;;;;;4937974;28;20135;-78
2022/07/02 05:09:57;;;;;;;7.68;3.22;;;25.20;99.90;;;;;;4939272;29;20050;-78
2022/07/02 05:12:24;;;;;;;9.02;2.83;;;25.50;99.90;;;;;;4946135;28;20122;-78
2022/07/02 05:14:50;;;;;;;10.05;3.60;;;25.90;99.90;;;;;;4931309;29;20065;-79
2022/07/02 05:17:20;;;;;;;9.50;3.15;;;26.10;99.90;;;;;;4926445;29;20040;-78
2022/07/02 05:19:45;;;;;;;8.30;3.38;;;26.40;99.90;;;;;;4930139;29;20058;-78
2022/07/02 05:22:11;;;;;;;8.50;3.70;;;26.80;99.90;;;;;;4940336;29;20051;-79
2022/07/02 05:24:37;;;;;;;7.50;3.30;;;27.10;99.00;;;;;;4940691;28;20093;-78
2022/07/02 05:27:03;;;;;;;9.55;3.55;;;27.30;98.70;;;;;;4942930;29;20051;-78
2022/07/02 05:29:28;;;;;;;9.10;3.38;;;27.50;96.70;;;;;;4924791;29;20117;-78
2022/07/02 05:31:54;;;;;;;10.20;3.58;;;27.60;95.70;;;;;;4935256;29;20047;-78
2022/07/02 05:34:20;;;;;;;8.73;3.08;;;27.50;93.70;;;;;;4924088;29;20449;-77
2022/07/02 05:36:47;;;;;;;11.43;3.30;;;25.90;95.30;;;;;;4944259;28;20142;-78
2022/07/02 05:39:13;;;;;;;7.82;3.75;;;24.20;96.60;;;;;;4933652;29;20040;-79
2022/07/02 05:41:39;;;;;;;8.98;3.45;;;22.70;97.70;;;;;;4924786;29;20042;-78
2022/07/02 05:44:05;;;;;;;9.82;3.38;;;21.50;99.90;;;;;;4926142;29;20514;-76
2022/07/02 05:46:30;;;;;;;12.07;3.75;;;20.60;99.90;;;;;;4950028;28;20039;-78
2022/07/02 05:48:56;;;;;;;7.13;3.08;;;19.90;99.90;;;;;;4949644;29;20537;-78
2022/07/02 05:51:22;;;;;;;7.60;3.03;;;19.30;99.90;;;;;;4947303;29;20047;-77
2022/07/02 05:53:47;;;;;;;7.55;2.95;;;19.00;99.90;;;;;;4928557;29;20134;-76
2022/07/02 05:56:13;;;;;;;8.07;3.45;;;18.60;99.90;;;;;;4942664;28;20090;-78
2022/07/02 05:58:39;;;;;;;7.45;3.15;;;18.30;99.90;;;;;;4925169;29;20098;-79
2022/07/02 06:01:05;;;;;;;11.05;4.53;;;18.40;99.90;;;;;;4947954;28;20113;-79
2022/07/02 06:03:30;;;;;;;8.95;3.45;;;18.70;99.90;;;;;;4925351;29;20047;-78
2022/07/02 06:08:41;;;;;;;8.25;3.08;;;21.40;99.90;;;;;;4939212;29;20051;-79
2022/07/02 06:11:07;;;;;;;11.25;3.10;;;22.50;99.90;;;;;;4922897;29;20142;-78
2022/07/02 06:13:33;;;;;;;9.70;2.97;;;23.90;99.90;;;;;;4924654;29;20043;-78
2022/07/02 06:15:58;;;;;;;8.25;2.80;;;24.80;99.90;;;;;;4923877;29;20082;-77
2022/07/02 06:18:24;;;;;;;8.23;3.35;;;25.10;99.90;;;;;;4922926;29;20039;-76
2022/07/02 06:20:51;;;;;;;10.68;3.40;;;25.70;99.90;;;;;;4927689;29;20043;-77
2022/07/02 06:23:19;;;;;;;8.68;3.20;;;26.40;99.50;;;;;;4925161;29;20409;-77
2022/07/02 06:25:45;;;;;;;8.18;3.10;;;25.80;98.40;;;;;;4920746;29;20097;-79
2022/07/02 06:28:11;;;;;;;9.80;3.28;;;24.10;98.70;;;;;;4905347;29;20055;-78
2022/07/02 06:30:36;;;;;;;8.23;2.90;;;22.70;99.90;;;;;;4937592;29;20880;-78
2022/07/02 06:33:02;;;;;;;6.88;3.00;;;21.60;99.90;;;;;;4935892;29;20047;-78
2022/07/02 06:35:28;;;;;;;7.20;2.97;;;20.60;99.90;;;;;;4937017;28;20121;-78
2022/07/02 06:37:54;;;;;;;11.15;3.13;;;20.00;99.90;;;;;;4922834;29;20106;-78
2022/07/02 06:40:20;;;;;;;9.63;3.35;;;19.30;99.90;;;;;;4945131;28;20062;-79
2022/07/02 06:42:46;;;;;;;11.43;3.38;;;18.90;99.90;;;;;;4926750;29;20040;-77
2022/07/02 06:45:11;;;;;;;10.50;3.38;;;18.60;99.90;;;;;;4912872;29;20516;-77
2022/07/02 06:47:42;;;;;;;7.55;2.88;;;18.30;99.90;;;;;;4926888;29;20043;-76
2022/07/02 06:50:09;;;;;;;7.78;2.83;;;18.20;99.90;;;;;;4919861;29;20058;-76
2022/07/02 06:52:35;;;;;;;6.65;2.72;;;18.10;99.90;;;;;;4945733;28;20149;-75
2022/07/02 06:55:01;;;;;;;9.88;2.72;;;18.00;99.90;;;;;;4924650;29;20126;-76
2022/07/02 06:57:27;;;;;;;6.95;2.90;;;18.00;99.90;;;;;;4923868;29;20091;-76
2022/07/02 06:59:53;;;;;;;10.55;3.20;;;17.90;99.90;;;;;;4902199;28;20044;-78
2022/07/02 07:02:19;;;;;;;7.68;2.90;;;17.70;99.90;;;;;;4924430;29;20039;-78
2022/07/02 07:04:45;;;;;;;9.25;2.55;;;17.70;99.90;;;;;;4939053;29;20444;-78
2022/07/02 07:07:11;;;;;;;9.82;2.83;;;17.70;99.90;;;;;;4950547;28;20101;-78
2022/07/02 07:09:37;;;;;;;8.60;2.67;;;17.80;99.90;;;;;;4941089;29;20040;-78
2022/07/02 07:12:04;;;;;;;13.18;3.05;;;18.00;99.90;;;;;;4943719;29;20043;-79
2022/07/02 07:14:31;;;;;;;5.97;2.53;;;18.20;99.90;;;;;;4940981;28;20672;-77
2022/07/02 07:16:58;;;;;;;6.18;2.60;;;18.40;99.90;;;;;;4922573;29;20062;-78
2022/07/02 07:19:23;;;;;;;8.00;2.92;;;18.60;99.90;;;;;;4923928;29;20075;-76
2022/07/02 07:21:49;;;;;;;8.82;2.90;;;18.90;99.90;;;;;;4911780;29;20563;-77
2022/07/02 07:24:15;;;;;;;6.43;2.40;;;19.30;99.90;;;;;;4942818;28;20035;-77
2022/07/02 07:26:41;;;;;;;11.23;2.88;;;19.80;99.90;;;;;;4946268;28;20114;-79
2022/07/02 07:29:07;;;;;;;7.43;1.90;;;20.00;99.90;;;;;;4941278;28;20090;-79
2022/07/02 07:31:34;;;;;;;6.15;1.77;;;20.30;99.90;;;;;;4926192;29;20438;-79
2022/07/02 07:34:01;;;;;;;8.57;1.98;;;20.50;99.90;;;;;;4924075;29;20094;-78
2022/07/02 07:36:27;;;;;;;7.15;2.35;;;20.80;99.90;;;;;;4937857;28;20122;-79
2022/07/02 07:38:53;;;;;;;8.82;2.05;;;20.90;99.90;;;;;;4927722;28;20421;-78
2022/07/02 07:41:20;;;;;;;9.43;2.53;;;21.20;99.90;;;;;;4946541;28;20036;-79
2022/07/02 07:43:46;;;;;;;9.15;2.35;;;21.30;99.90;;;;;;4946841;29;20039;-79
2022/07/02 07:46:12;;;;;;;8.60;2.10;;;21.50;99.90;;;;;;4949329;29;20039;-78
2022/07/02 07:48:38;;;;;;;6.05;1.55;;;21.60;99.90;;;;;;4925534;29;20675;-77
2022/07/02 07:51:07;;;;;;;6.63;2.25;;;21.90;99.90;;;;;;4940340;28;20142;-79
2022/07/02 07:53:33;;;;;;;5.03;1.30;;;22.10;99.90;;;;;;4924307;29;20074;-78
2022/07/02 07:55:59;;;;;;;4.60;1.25;;;22.20;99.90;;;;;;4924433;29;20118;-77
2022/07/02 07:58:25;;;;;;;6.15;1.55;;;22.30;99.90;;;;;;4922466;29;20050;-77
2022/07/02 08:00:51;;;;;;;4.35;1.52;;;22.50;99.90;;;;;;4936139;28;20055;-77
2022/07/02 08:03:18;;;;;;;5.45;1.38;;;22.70;99.90;;;;;;4935999;28;20874;-76
2022/07/02 08:05:46;;;;;;;5.05;1.48;;;22.90;99.90;;;;;;4918209;29;20078;-77
2022/07/02 08:08:15;;;;;;;7.65;1.95;;;22.80;99.90;;;;;;4906913;29;20051;-79
2022/07/02 08:10:41;;;;;;;6.35;1.08;;;22.80;99.90;;;;;;4941391;28;20043;-76
2022/07/02 08:13:07;;;;;;;6.28;1.50;;;22.90;99.90;;;;;;4917547;29;20074;-77
2022/07/02 08:15:33;;;;;;;4.05;1.10;;;23.10;99.90;;;;;;4934148;28;20490;-76
2022/07/02 08:17:59;;;;;;;5.80;1.05;;;23.30;99.90;;;;;;4932978;28;20082;-78
2022/07/02 08:20:24;;;;;;;5.35;1.40;;;23.50;99.90;;;;;;4932085;28;20047;-77
2022/07/02 08:22:51;;;;;;;5.07;1.30;;;23.60;99.90;;;;;;4922895;29;20445;-76
2022/07/02 08:25:17;;;;;;;6.82;1.33;;;23.70;99.90;;;;;;4924854;29;20070;-75
2022/07/02 08:27:44;;;;;;;5.07;1.42;;;23.70;99.90;;;;;;4939562;28;20121;-75
2022/07/02 08:30:10;;;;;;;4.85;1.00;;;23.70;99.90;;;;;;4924180;29;20061;-74
2022/07/02 08:32:37;;;;;;;7.22;1.20;;;23.90;99.90;;;;;;4943114;28;20572;-74
2022/07/02 08:35:03;;;;;;;4.50;1.20;;;23.90;99.20;;;;;;4941744;29;20457;-75
2022/07/02 08:37:30;;;;;;;5.47;1.17;;;23.80;99.20;;;;;;4922056;29;20042;-76
2022/07/02 08:39:56;;;;;;;5.65;1.27;;;23.70;99.90;;;;;;4927043;29;20047;-75
2022/07/02 08:42:26;;;;;;;4.03;0.93;;;23.90;99.90;;;;;;4942905;28;20050;-75
2022/07/02 08:44:57;;;;;;;4.22;1.27;;;24.20;99.00;;;;;;4924034;29;20054;-75
2022/07/02 08:47:25;;;;;;;6.93;1.48;;;24.40;99.90;;;;;;4927615;29;20531;-76
2022/07/02 08:49:52;;;;;;;4.65;1.20;;;24.30;98.60;;;;;;4940799;29;20048;-76
2022/07/02 08:52:20;;;;;;;4.50;1.13;;;24.40;99.90;;;;;;4927557;29;20051;-74
2022/07/02 08:54:47;;;;;;;4.47;1.10;;;24.50;98.60;;;;;;4943021;29;20054;-74
2022/07/02 08:57:15;;;;;;;5.25;1.10;;;24.60;97.80;;;;;;4915249;28;20074;-74
2022/07/02 08:59:42;;;;;;;6.10;1.38;;;24.50;98.20;;;;;;4922920;29;20059;-76
2022/07/02 09:02:10;;;;;;;5.53;1.40;;;24.60;98.30;;;;;;4940436;29;20437;-76
2022/07/02 09:04:42;;;;;;;4.35;1.00;;;24.80;98.10;;;;;;4941938;29;20051;-76
2022/07/02 09:07:11;;;;;;;5.22;1.20;;;25.10;99.00;;;;;;4925747;29;20574;-76
2022/07/02 09:09:37;;;;;;;7.40;1.40;;;25.20;96.70;;;;;;4937783;29;20052;-75
2022/07/02 09:12:03;;;;;;;6.72;1.00;;;25.10;94.20;;;;;;4920723;29;20050;-76
2022/07/02 09:14:32;;;;;;;4.78;1.13;;;24.90;94.10;;;;;;4924182;29;20039;-74
2022/07/02 09:16:59;;;;;;;3.90;1.00;;;24.60;91.30;;;;;;4922109;29;20819;-75
2022/07/02 09:19:26;;;;;;;2.67;0.70;;;24.50;93.20;;;;;;4922244;29;20063;-75
2022/07/02 09:21:52;;;;;;;2.17;0.68;;;24.70;93.50;;;;;;4935136;28;20051;-75
2022/07/02 09:24:35;;;;;;;3.58;0.68;;;24.90;94.00;;;;;;4917990;29;20453;-75
2022/07/02 09:27:12;;;;;;;3.58;0.80;;;25.00;94.30;;;;;;4935914;28;20051;-76
2022/07/02 09:29:42;;;;;;;2.95;0.82;;;25.30;94.10;;;;;;4927209;29;20055;-74
2022/07/02 09:32:08;;;;;;;3.50;0.90;;;24.90;91.50;;;;;;4943907;28;20055;-76
2022/07/02 09:34:34;;;;;;;3.47;1.00;;;24.70;91.90;;;;;;4926236;29;20047;-75
2022/07/02 09:37:00;;;;;;;2.50;0.68;;;24.60;91.40;;;;;;4939420;29;20400;-75
2022/07/02 09:39:30;;;;;;;3.08;0.90;;;24.70;92.40;;;;;;4926409;29;20043;-74
2022/07/02 09:41:59;;;;;;;4.47;0.90;;;25.00;91.40;;;;;;4925208;29;20043;-75
2022/07/02 09:44:26;;;;;;;3.95;0.95;;;25.00;91.20;;;;;;4938603;29;20475;-77
2022/07/02 09:46:55;;;;;;;3.10;0.80;;;25.00;90.50;;;;;;4938267;28;20050;-75
2022/07/02 09:49:20;;;;;;;4.53;0.90;;;25.00;90.30;;;;;;4929542;28;20063;-72
2022/07/02 09:51:53;;;;;;;2.47;0.77;;;25.10;92.20;;;;;;4910264;29;20172;-71
2022/07/02 09:54:24;;;;;;;3.45;0.80;;;25.10;90.20;;;;;;4942024;28;20055;-73
2022/07/02 09:56:54;;;;;;;2.92;0.68;;;24.90;90.40;;;;;;4936715;29;20055;-73
2022/07/02 09:59:21;;;;;;;1.65;0.63;;;24.80;89.40;;;;;;4922033;29;20042;-72
2022/07/02 10:01:46;;;;;;;4.13;0.70;;;25.00;91.80;;;;;;4937331;28;20095;-74
2022/07/02 10:04:13;;;;;;;3.28;0.80;;;25.20;89.10;;;;;;4924905;29;20082;-73
2022/07/02 10:06:41;;;;;;;5.18;1.20;;;25.10;88.60;;;;;;4935860;28;20054;-72
2022/07/02 10:09:07;;;;;;;3.70;0.70;;;24.90;89.40;;;;;;4917208;29;20501;-74
2022/07/02 10:11:34;;;;;;;6.45;0.90;;;24.80;90.70;;;;;;4943227;28;20039;-73
2022/07/02 10:14:00;;;;;;;1.88;0.60;;;24.70;88.00;;;;;;4937257;29;20047;-73
2022/07/02 10:16:27;;;;;;;4.93;0.95;;;24.70;90.40;;;;;;4936742;28;20059;-74
2022/07/02 10:18:57;;;;;;;3.25;0.90;;;24.80;90.20;;;;;;4937802;28;20062;-74
2022/07/02 10:21:24;;;;;;;2.10;0.65;;;24.90;89.80;;;;;;4935023;28;20054;-73
2022/07/02 10:23:51;;;;;;;2.38;0.63;;;24.80;86.70;;;;;;4928012;29;20137;-73
2022/07/02 10:26:17;;;;;;;5.25;0.65;;;24.80;88.70;;;;;;4923357;29;20070;-73
2022/07/02 10:28:43;;;;;;;4.55;0.60;;;25.00;90.00;;;;;;4914633;29;20584;-73
2022/07/02 10:31:19;;;;;;;2.80;0.80;;;25.00;85.60;;;;;;4900715;29;20063;-74
2022/07/02 10:34:04;;;;;;;3.75;0.70;;;25.00;87.10;;;;;;4903793;28;20161;-73
2022/07/02 10:36:32;;;;;;;3.33;0.60;;;25.10;89.70;;;;;;4932393;28;20567;-72
2022/07/02 10:39:00;;;;;;;2.17;0.55;;;25.30;87.90;;;;;;4923121;29;20647;-73
2022/07/02 10:41:32;;;;;;;4.68;0.80;;;25.50;86.60;;;;;;4921269;29;20047;-74
2022/07/02 10:43:59;;;;;;;7.25;1.55;;;25.60;84.40;;;;;;4943881;28;20039;-74
2022/07/02 10:46:27;;;;;;;2.75;0.57;;;25.70;84.70;;;;;;4909630;29;20771;-74
2022/07/02 10:48:54;;;;;;;2.47;0.57;;;25.80;87.70;;;;;;4927134;29;20441;-73
2022/07/02 10:51:28;;;;;;;3.10;0.80;;;25.90;82.50;;;;;;4926658;29;20050;-73
2022/07/02 10:53:59;;;;;;;1.52;0.60;;;25.80;82.30;;;;;;4940416;29;20035;-74
2022/07/02 10:56:29;;;;;;;2.80;0.70;;;25.70;79.10;;;;;;4955418;29;20608;-73
2022/07/02 10:58:55;;;;;;;4.47;1.00;;;25.80;81.80;;;;;;4934680;29;20050;-73
2022/07/02 11:01:24;;;;;;;2.88;0.68;;;25.90;76.70;;;;;;4928672;29;20051;-74
2022/07/02 11:04:00;;;;;;;4.18;0.95;;;25.80;81.50;;;;;;4908404;29;20520;-73
2022/07/02 11:06:27;;;;;;;2.60;0.50;;;25.70;80.00;;;;;;4929342;29;20039;-74
2022/07/02 11:09:06;;;;;;;1.85;0.70;;;26.00;84.30;;;;;;4939561;28;20524;-74
2022/07/02 11:11:35;;;;;;;4.82;0.93;;;26.40;82.40;;;;;;4924146;28;20075;-74
2022/07/02 11:14:11;;;;;;;3.90;0.70;;;26.70;80.00;;;;;;4923297;29;20492;-74
2022/07/02 11:16:47;;;;;;;4.47;0.63;;;26.70;75.80;;;;;;4939695;28;20150;-73
2022/07/02 11:19:20;;;;;;;4.75;0.70;;;26.60;76.80;;;;;;4927478;29;20045;-74
2022/07/02 11:21:47;;;;;;;2.53;0.60;;;26.70;80.30;;;;;;4943642;28;20054;-73
2022/07/02 11:24:19;;;;;;;2.17;0.45;;;26.60;77.00;;;;;;4924204;29;20043;-73
2022/07/02 11:26:45;;;;;;;4.05;0.70;;;26.20;73.70;;;;;;4936677;29;20564;-73
2022/07/02 11:29:11;;;;;;;1.67;0.50;;;25.80;74.40;;;;;;4926226;29;20174;-72
2022/07/02 11:31:42;;;;;;;1.50;0.50;;;25.30;72.90;;;;;;4938121;28;20424;-73
2022/07/02 11:34:08;;;;;;;4.57;0.90;;;24.90;76.50;;;;;;4925592;29;20062;-72
2022/07/02 11:36:39;;;;;;;1.58;0.50;;;24.50;74.90;;;;;;4912159;29;20623;-72
2022/07/02 11:39:12;;;;;;;3.10;0.65;;;24.40;78.10;;;;;;4929505;29;20130;-72
2022/07/02 11:41:39;;;;;;;4.65;0.68;;;24.40;76.80;;;;;;4920010;29;20138;-73
2022/07/02 11:44:22;;;;;;;2.15;0.50;;;24.70;78.20;;;;;;4930320;29;20165;-73
2022/07/02 11:46:54;;;;;;;2.55;0.70;;;24.80;77.10;;;;;;4913385;29;20087;-75
2022/07/02 11:49:25;;;;;;;4.50;0.68;;;24.60;76.70;;;;;;4925789;29;20078;-73
2022/07/02 11:51:53;;;;;;;3.58;0.73;;;24.60;79.70;;;;;;4940517;29;20075;-73
2022/07/02 11:54:20;;;;;;;1.77;0.70;;;24.70;79.90;;;;;;4940948;29;20050;-73
2022/07/02 11:56:47;;;;;;;3.63;0.70;;;24.90;80.10;;;;;;4919395;29;20047;-72
2022/07/02 11:59:15;;;;;;;2.47;0.57;;;25.10;78.80;;;;;;4922995;29;20047;-73
2022/07/02 12:01:43;;;;;;;5.47;0.80;;;24.90;77.80;;;;;;4924005;29;20054;-73
2022/07/02 12:04:11;;;;;;;2.35;0.60;;;24.60;77.40;;;;;;4925075;29;20071;-74
2022/07/02 12:06:40;;;;;;;3.20;0.60;;;24.50;78.90;;;;;;4937807;28;20050;-73
2022/07/02 12:09:11;;;;;;;2.78;0.70;;;24.30;79.10;;;;;;4937030;28;20445;-73
2022/07/02 12:11:39;;;;;;;4.95;0.77;;;24.30;79.40;;;;;;4919987;29;20133;-72
2022/07/02 12:14:06;;;;;;;3.30;0.68;;;24.20;79.00;;;;;;4944273;28;20043;-72
2022/07/02 12:16:33;;;;;;;3.28;0.90;;;24.00;80.80;;;;;;4935835;29;20044;-73
2022/07/02 12:19:19;;;;;;;3.33;0.65;;;24.00;80.70;;;;;;4923286;29;20043;-73
2022/07/02 12:21:50;;;;;;;3.33;0.75;;;24.00;80.60;;;;;;4936609;28;20062;-72
2022/07/02 12:24:24;;;;;;;4.32;0.90;;;24.00;79.70;;;;;;4916694;28;20051;-72
2022/07/02 12:26:53;;;;;;;2.88;0.70;;;23.90;78.20;;;;;;4925719;29;20081;-72
2022/07/02 12:32:11;;;;;;;4.57;0.40;;;23.90;77.60;;;;;;4934532;28;20058;-72
2022/07/02 12:34:42;;;;;;;3.50;0.50;;;24.00;78.90;;;;;;4920641;29;20048;-73
2022/07/02 12:37:33;;;;;;;3.28;0.70;;;24.10;80.00;;;;;;4940276;28;20043;-72
2022/07/02 12:40:06;;;;;;;1.58;0.60;;;24.50;79.40;;;;;;4932950;29;20158;-73
2022/07/02 12:42:42;;;;;;;2.13;0.47;;;24.80;78.20;;;;;;4905822;29;20051;-72
2022/07/02 12:45:09;;;;;;;2.97;0.50;;;25.10;81.10;;;;;;4940924;28;20035;-73
2022/07/02 12:47:37;;;;;;;2.50;0.57;;;25.40;77.90;;;;;;4922052;29;20047;-72
2022/07/02 12:50:14;;;;;;;2.83;0.60;;;25.70;77.30;;;;;;4939184;28;20054;-73
2022/07/02 12:52:54;;;;;;;1.83;0.50;;;26.00;78.50;;;;;;4924652;29;20050;-74
2022/07/02 12:55:28;;;;;;;3.70;0.70;;;26.10;78.90;;;;;;4920396;29;20039;-74